sensor_id;sensor_type;location;lat;lon;timestamp;pressure;altitude;pressure_sealevel;temperature;humidity
21290;BME280;10804;48.988;2.408;2022-10-16T00:00:06;100413.81;;;18.49;63.08
21290;BME280;10804;48.988;2.408;2022-10-16T00:02:33;100421.72;;;18.49;63.00
21290;BME280;10804;48.988;2.408;2022-10-16T00:05:01;100423.50;;;18.48;63.10
21290;BME280;10804;48.988;2.408;2022-10-16T00:07:28;100410.31;;;18.48;63.13
21290;BME280;10804;48.988;2.408;2022-10-16T00:09:55;100405.97;;;18.47;62.96
21290;BME280;10804;48.988;2.408;2022-10-16T00:12:23;100404.19;;;18.48;63.06
21290;BME280;10804;48.988;2.408;2022-10-16T00:14:51;100412.13;;;18.48;62.99
21290;BME280;10804;48.988;2.408;2022-10-16T00:17:19;100407.75;;;18.47;63.01
21290;BME280;10804;48.988;2.408;2022-10-16T00:19:46;100405.09;;;18.47;63.09
21290;BME280;10804;48.988;2.408;2022-10-16T00:22:32;100416.72;;;18.44;63.11
21290;BME280;10804;48.988;2.408;2022-10-16T00:25:00;100439.34;;;18.48;62.94
21290;BME280;10804;48.988;2.408;2022-10-16T00:27:28;100442.06;;;18.47;62.89
21290;BME280;10804;48.988;2.408;2022-10-16T00:29:57;100438.69;;;18.45;62.96
21290;BME280;10804;48.988;2.408;2022-10-16T00:32:24;100429.94;;;18.44;63.05
21290;BME280;10804;48.988;2.408;2022-10-16T00:34:52;100424.66;;;18.44;62.94
21290;BME280;10804;48.988;2.408;2022-10-16T00:37:20;100419.47;;;18.43;63.01
21290;BME280;10804;48.988;2.408;2022-10-16T00:39:47;100431.72;;;18.44;62.97
21290;BME280;10804;48.988;2.408;2022-10-16T00:42:15;100435.31;;;18.43;63.03
21290;BME280;10804;48.988;2.408;2022-10-16T00:44:46;100443.22;;;18.43;63.01
21290;BME280;10804;48.988;2.408;2022-10-16T00:47:19;100439.72;;;18.42;63.05
21290;BME280;10804;48.988;2.408;2022-10-16T00:49:50;100446.81;;;18.42;63.02
21290;BME280;10804;48.988;2.408;2022-10-16T00:52:17;100451.25;;;18.41;62.98
21290;BME280;10804;48.988;2.408;2022-10-16T00:54:46;100447.75;;;18.41;63.02
21290;BME280;10804;48.988;2.408;2022-10-16T00:57:14;100455.69;;;18.41;63.08
21290;BME280;10804;48.988;2.408;2022-10-16T00:59:42;100457.47;;;18.40;63.05
21290;BME280;10804;48.988;2.408;2022-10-16T01:02:11;100455.56;;;18.42;63.07
21290;BME280;10804;48.988;2.408;2022-10-16T01:04:42;100447.84;;;18.39;63.19
21290;BME280;10804;48.988;2.408;2022-10-16T01:07:14;100440.78;;;18.40;63.13
21290;BME280;10804;48.988;2.408;2022-10-16T01:09:49;100454.91;;;18.39;63.06
21290;BME280;10804;48.988;2.408;2022-10-16T01:12:23;100458.41;;;18.39;63.07
21290;BME280;10804;48.988;2.408;2022-10-16T01:14:55;100459.44;;;18.37;63.08
21290;BME280;10804;48.988;2.408;2022-10-16T01:17:32;100459.34;;;18.38;63.24
21290;BME280;10804;48.988;2.408;2022-10-16T01:20:12;100455.97;;;18.36;62.96
21290;BME280;10804;48.988;2.408;2022-10-16T01:22:56;100465.47;;;18.39;63.07
21290;BME280;10804;48.988;2.408;2022-10-16T01:25:36;100458.50;;;18.38;62.99
21290;BME280;10804;48.988;2.408;2022-10-16T01:28:09;100465.47;;;18.39;62.96
21290;BME280;10804;48.988;2.408;2022-10-16T01:30:38;100471.69;;;18.38;63.15
21290;BME280;10804;48.988;2.408;2022-10-16T01:33:11;100466.41;;;18.38;62.98
21290;BME280;10804;48.988;2.408;2022-10-16T01:35:44;100468.31;;;18.36;63.04
21290;BME280;10804;48.988;2.408;2022-10-16T01:38:16;100466.53;;;18.36;63.00
21290;BME280;10804;48.988;2.408;2022-10-16T01:40:49;100478.78;;;18.37;63.18
21290;BME280;10804;48.988;2.408;2022-10-16T01:43:22;100476.22;;;18.36;63.23
21290;BME280;10804;48.988;2.408;2022-10-16T01:45:52;100473.50;;;18.37;63.01
21290;BME280;10804;48.988;2.408;2022-10-16T01:48:21;100467.38;;;18.37;62.97
21290;BME280;10804;48.988;2.408;2022-10-16T01:50:57;100463.03;;;18.36;62.92
21290;BME280;10804;48.988;2.408;2022-10-16T01:53:27;100460.41;;;18.36;63.12
21290;BME280;10804;48.988;2.408;2022-10-16T01:55:55;100457.75;;;18.36;63.02
21290;BME280;10804;48.988;2.408;2022-10-16T01:58:25;100465.69;;;18.36;63.22
21290;BME280;10804;48.988;2.408;2022-10-16T02:00:57;100455.97;;;18.36;63.04
21290;BME280;10804;48.988;2.408;2022-10-16T02:03:24;100461.34;;;18.35;63.09
21290;BME280;10804;48.988;2.408;2022-10-16T02:05:54;100457.94;;;18.33;63.01
21290;BME280;10804;48.988;2.408;2022-10-16T02:08:24;100453.41;;;18.35;63.03
21290;BME280;10804;48.988;2.408;2022-10-16T02:10:52;100457.00;;;18.34;63.14
21290;BME280;10804;48.988;2.408;2022-10-16T02:13:22;100463.22;;;18.33;63.09
21290;BME280;10804;48.988;2.408;2022-10-16T02:15:52;100462.28;;;18.34;63.07
21290;BME280;10804;48.988;2.408;2022-10-16T02:18:21;100460.59;;;18.33;63.11
21290;BME280;10804;48.988;2.408;2022-10-16T02:20:52;100465.00;;;18.32;63.08
21290;BME280;10804;48.988;2.408;2022-10-16T02:23:49;100473.88;;;18.31;63.10
21290;BME280;10804;48.988;2.408;2022-10-16T02:26:25;100480.00;;;18.32;63.08
21290;BME280;10804;48.988;2.408;2022-10-16T02:28:58;100474.72;;;18.32;63.10
21290;BME280;10804;48.988;2.408;2022-10-16T02:31:31;100470.38;;;18.31;63.02
21290;BME280;10804;48.988;2.408;2022-10-16T02:34:01;100469.44;;;18.32;63.06
21290;BME280;10804;48.988;2.408;2022-10-16T02:36:31;100460.75;;;18.30;63.08
21290;BME280;10804;48.988;2.408;2022-10-16T02:38:59;100451.13;;;18.29;62.96
21290;BME280;10804;48.988;2.408;2022-10-16T02:41:30;100454.63;;;18.29;63.16
21290;BME280;10804;48.988;2.408;2022-10-16T02:43:57;100464.31;;;18.29;63.06
21290;BME280;10804;48.988;2.408;2022-10-16T02:46:25;100469.69;;;18.27;63.11
21290;BME280;10804;48.988;2.408;2022-10-16T02:48:54;100469.59;;;18.29;63.14
21290;BME280;10804;48.988;2.408;2022-10-16T02:51:21;100466.97;;;18.29;63.07
21290;BME280;10804;48.988;2.408;2022-10-16T02:53:48;100472.31;;;18.27;63.05
21290;BME280;10804;48.988;2.408;2022-10-16T02:56:16;100475.91;;;18.26;63.09
21290;BME280;10804;48.988;2.408;2022-10-16T02:58:43;100485.44;;;18.29;62.99
21290;BME280;10804;48.988;2.408;2022-10-16T03:01:10;100491.88;;;18.25;63.12
21290;BME280;10804;48.988;2.408;2022-10-16T03:03:38;100490.81;;;18.27;63.08
21290;BME280;10804;48.988;2.408;2022-10-16T03:06:07;100503.91;;;18.29;63.04
21290;BME280;10804;48.988;2.408;2022-10-16T03:08:34;100502.22;;;18.28;62.93
21290;BME280;10804;48.988;2.408;2022-10-16T03:11:01;100497.91;;;18.27;63.04
21290;BME280;10804;48.988;2.408;2022-10-16T03:13:29;100503.19;;;18.27;63.05
21290;BME280;10804;48.988;2.408;2022-10-16T03:15:56;100495.34;;;18.25;63.08
21290;BME280;10804;48.988;2.408;2022-10-16T03:18:23;100502.44;;;18.25;62.99
21290;BME280;10804;48.988;2.408;2022-10-16T03:20:51;100496.19;;;18.26;63.04
21290;BME280;10804;48.988;2.408;2022-10-16T03:23:19;100498.84;;;18.26;63.01
21290;BME280;10804;48.988;2.408;2022-10-16T03:25:47;100492.78;;;18.24;63.04
21290;BME280;10804;48.988;2.408;2022-10-16T03:28:14;100487.50;;;18.24;63.08
21290;BME280;10804;48.988;2.408;2022-10-16T03:30:42;100494.50;;;18.25;63.15
21290;BME280;10804;48.988;2.408;2022-10-16T03:33:10;100481.38;;;18.23;63.12
21290;BME280;10804;48.988;2.408;2022-10-16T03:35:37;100468.28;;;18.22;63.11
21290;BME280;10804;48.988;2.408;2022-10-16T03:38:04;100476.09;;;18.23;63.12
21290;BME280;10804;48.988;2.408;2022-10-16T03:40:33;100479.69;;;18.22;63.22
21290;BME280;10804;48.988;2.408;2022-10-16T03:43:00;100478.84;;;18.22;63.33
21290;BME280;10804;48.988;2.408;2022-10-16T03:45:28;100487.50;;;18.24;63.10
21290;BME280;10804;48.988;2.408;2022-10-16T03:47:55;100484.97;;;18.22;63.18
21290;BME280;10804;48.988;2.408;2022-10-16T03:50:22;100481.47;;;18.22;63.19
21290;BME280;10804;48.988;2.408;2022-10-16T03:52:49;100492.97;;;18.21;63.07
21290;BME280;10804;48.988;2.408;2022-10-16T03:55:17;100502.69;;;18.20;62.99
21290;BME280;10804;48.988;2.408;2022-10-16T03:57:45;100500.91;;;18.21;63.13
21290;BME280;10804;48.988;2.408;2022-10-16T04:00:13;100493.84;;;18.21;63.22
21290;BME280;10804;48.988;2.408;2022-10-16T04:02:40;100500.16;;;18.19;63.25
21290;BME280;10804;48.988;2.408;2022-10-16T04:05:08;100508.81;;;18.21;63.13
21290;BME280;10804;48.988;2.408;2022-10-16T04:07:36;100488.66;;;18.20;62.92
21290;BME280;10804;48.988;2.408;2022-10-16T04:10:04;100495.69;;;18.19;62.99
21290;BME280;10804;48.988;2.408;2022-10-16T04:12:32;100492.22;;;18.19;63.01
21290;BME280;10804;48.988;2.408;2022-10-16T04:15:00;100502.69;;;18.20;63.06
21290;BME280;10804;48.988;2.408;2022-10-16T04:17:27;100499.19;;;18.20;62.99
21290;BME280;10804;48.988;2.408;2022-10-16T04:19:55;100506.25;;;18.19;63.04
21290;BME280;10804;48.988;2.408;2022-10-16T04:22:22;100521.25;;;18.19;63.02
21290;BME280;10804;48.988;2.408;2022-10-16T04:24:50;100519.56;;;18.18;63.11
21290;BME280;10804;48.988;2.408;2022-10-16T04:27:17;100519.56;;;18.18;63.05
21290;BME280;10804;48.988;2.408;2022-10-16T04:29:44;100524.06;;;18.16;63.18
21290;BME280;10804;48.988;2.408;2022-10-16T04:32:13;100517.00;;;18.16;63.08
21290;BME280;10804;48.988;2.408;2022-10-16T04:34:40;100510.88;;;18.16;63.05
21290;BME280;10804;48.988;2.408;2022-10-16T04:37:08;100524.00;;;18.17;63.09
21290;BME280;10804;48.988;2.408;2022-10-16T04:39:35;100532.94;;;18.15;62.87
21290;BME280;10804;48.988;2.408;2022-10-16T04:42:02;100541.72;;;18.15;63.04
21290;BME280;10804;48.988;2.408;2022-10-16T04:44:30;100549.56;;;18.17;63.03
21290;BME280;10804;48.988;2.408;2022-10-16T04:46:57;100541.81;;;18.14;63.06
21290;BME280;10804;48.988;2.408;2022-10-16T04:49:26;100551.41;;;18.15;63.07
21290;BME280;10804;48.988;2.408;2022-10-16T04:51:53;100560.28;;;18.14;63.07
21290;BME280;10804;48.988;2.408;2022-10-16T04:54:20;100555.00;;;18.14;63.03
21290;BME280;10804;48.988;2.408;2022-10-16T04:56:48;100557.72;;;18.12;63.05
21290;BME280;10804;48.988;2.408;2022-10-16T04:59:17;100563.94;;;18.11;63.05
21290;BME280;10804;48.988;2.408;2022-10-16T05:01:45;100577.13;;;18.11;63.04
21290;BME280;10804;48.988;2.408;2022-10-16T05:04:12;100572.72;;;18.12;63.02
21290;BME280;10804;48.988;2.408;2022-10-16T05:06:42;100567.44;;;18.12;63.14
21290;BME280;10804;48.988;2.408;2022-10-16T05:09:09;100581.75;;;18.08;63.15
21290;BME280;10804;48.988;2.408;2022-10-16T05:11:37;100578.00;;;18.12;63.12
21290;BME280;10804;48.988;2.408;2022-10-16T05:14:04;100575.44;;;18.10;62.99
21290;BME280;10804;48.988;2.408;2022-10-16T05:16:32;100581.59;;;18.11;62.97
21290;BME280;10804;48.988;2.408;2022-10-16T05:18:59;100571.97;;;18.10;63.03
21290;BME280;10804;48.988;2.408;2022-10-16T05:21:26;100569.34;;;18.10;62.94
21290;BME280;10804;48.988;2.408;2022-10-16T05:23:55;100571.97;;;18.10;63.07
21290;BME280;10804;48.988;2.408;2022-10-16T05:26:22;100595.72;;;18.10;63.24
21290;BME280;10804;48.988;2.408;2022-10-16T05:28:50;100606.28;;;18.10;62.95
21290;BME280;10804;48.988;2.408;2022-10-16T05:31:18;100599.28;;;18.09;63.22
21290;BME280;10804;48.988;2.408;2022-10-16T05:33:45;100616.84;;;18.10;63.07
21290;BME280;10804;48.988;2.408;2022-10-16T05:36:12;100621.25;;;18.09;63.02
21290;BME280;10804;48.988;2.408;2022-10-16T05:38:40;100613.41;;;18.08;63.07
21290;BME280;10804;48.988;2.408;2022-10-16T05:41:10;100605.50;;;18.08;63.04
21290;BME280;10804;48.988;2.408;2022-10-16T05:43:37;100602.09;;;18.06;63.13
21290;BME280;10804;48.988;2.408;2022-10-16T05:46:05;100602.03;;;18.07;63.05
21290;BME280;10804;48.988;2.408;2022-10-16T05:48:33;100594.19;;;18.06;63.00
21290;BME280;10804;48.988;2.408;2022-10-16T05:51:02;100599.47;;;18.06;63.23
21290;BME280;10804;48.988;2.408;2022-10-16T05:53:31;100604.06;;;18.02;63.10
21290;BME280;10804;48.988;2.408;2022-10-16T05:55:59;100603.06;;;18.05;63.09
21290;BME280;10804;48.988;2.408;2022-10-16T05:58:30;100593.53;;;18.02;63.07
21290;BME280;10804;48.988;2.408;2022-10-16T06:01:00;100597.97;;;18.02;63.18
21290;BME280;10804;48.988;2.408;2022-10-16T06:03:27;100612.84;;;18.03;63.12
21290;BME280;10804;48.988;2.408;2022-10-16T06:05:55;100619.91;;;18.02;63.23
21290;BME280;10804;48.988;2.408;2022-10-16T06:08:22;100615.50;;;18.03;63.10
21290;BME280;10804;48.988;2.408;2022-10-16T06:11:00;100620.00;;;18.01;62.96
21290;BME280;10804;48.988;2.408;2022-10-16T06:13:29;100617.47;;;17.99;63.10
21290;BME280;10804;48.988;2.408;2022-10-16T06:15:57;100612.25;;;17.98;62.98
21290;BME280;10804;48.988;2.408;2022-10-16T06:18:24;100621.94;;;17.97;62.98
21290;BME280;10804;48.988;2.408;2022-10-16T06:20:52;100614.03;;;17.97;63.17
21290;BME280;10804;48.988;2.408;2022-10-16T06:23:20;100618.41;;;17.98;63.22
21290;BME280;10804;48.988;2.408;2022-10-16T06:25:47;100615.84;;;17.97;63.22
21290;BME280;10804;48.988;2.408;2022-10-16T06:28:14;100618.47;;;17.97;63.28
21290;BME280;10804;48.988;2.408;2022-10-16T06:30:43;100622.06;;;17.96;63.19
21290;BME280;10804;48.988;2.408;2022-10-16T06:33:12;100609.88;;;17.93;63.24
21290;BME280;10804;48.988;2.408;2022-10-16T06:35:40;100609.88;;;17.93;63.23
21290;BME280;10804;48.988;2.408;2022-10-16T06:38:07;100600.19;;;17.94;63.34
21290;BME280;10804;48.988;2.408;2022-10-16T06:40:35;100607.34;;;17.92;63.21
21290;BME280;10804;48.988;2.408;2022-10-16T06:43:02;100623.16;;;17.92;63.18
21290;BME280;10804;48.988;2.408;2022-10-16T06:45:29;100625.91;;;17.90;63.27
21290;BME280;10804;48.988;2.408;2022-10-16T06:47:58;100642.66;;;17.89;63.22
21290;BME280;10804;48.988;2.408;2022-10-16T06:50:25;100652.38;;;17.89;63.35
21290;BME280;10804;48.988;2.408;2022-10-16T06:52:52;100641.06;;;17.87;63.31
21290;BME280;10804;48.988;2.408;2022-10-16T06:55:20;100651.63;;;17.87;63.14
21290;BME280;10804;48.988;2.408;2022-10-16T06:57:47;100641.06;;;17.87;63.16
21290;BME280;10804;48.988;2.408;2022-10-16T07:00:15;100638.44;;;17.87;63.20
21290;BME280;10804;48.988;2.408;2022-10-16T07:02:42;100644.63;;;17.86;63.33
21290;BME280;10804;48.988;2.408;2022-10-16T07:05:10;100651.78;;;17.84;63.19
21290;BME280;10804;48.988;2.408;2022-10-16T07:07:38;100644.72;;;17.84;63.28
21290;BME280;10804;48.988;2.408;2022-10-16T07:10:06;100649.13;;;17.84;63.34
21290;BME280;10804;48.988;2.408;2022-10-16T07:12:33;100668.53;;;17.83;63.31
21290;BME280;10804;48.988;2.408;2022-10-16T07:15:00;100673.81;;;17.83;63.50
21290;BME280;10804;48.988;2.408;2022-10-16T07:17:27;100675.63;;;17.82;63.42
21290;BME280;10804;48.988;2.408;2022-10-16T07:19:55;100677.41;;;17.82;63.37
21290;BME280;10804;48.988;2.408;2022-10-16T07:22:23;100685.31;;;17.82;63.37
21290;BME280;10804;48.988;2.408;2022-10-16T07:24:51;100695.00;;;17.81;63.37
21290;BME280;10804;48.988;2.408;2022-10-16T07:27:18;100690.59;;;17.82;63.43
21290;BME280;10804;48.988;2.408;2022-10-16T07:29:48;100687.09;;;17.81;63.53
21290;BME280;10804;48.988;2.408;2022-10-16T07:32:15;100681.72;;;17.83;63.49
21290;BME280;10804;48.988;2.408;2022-10-16T07:34:43;100693.16;;;17.83;63.49
21290;BME280;10804;48.988;2.408;2022-10-16T07:37:11;100693.97;;;17.84;63.45
21290;BME280;10804;48.988;2.408;2022-10-16T07:39:40;100698.31;;;17.85;63.44
21290;BME280;10804;48.988;2.408;2022-10-16T07:42:07;100705.41;;;17.84;63.46
21290;BME280;10804;48.988;2.408;2022-10-16T07:44:34;100707.19;;;17.84;63.39
21290;BME280;10804;48.988;2.408;2022-10-16T07:47:02;100712.38;;;17.85;63.52
21290;BME280;10804;48.988;2.408;2022-10-16T07:49:29;100709.66;;;17.87;63.39
21290;BME280;10804;48.988;2.408;2022-10-16T07:51:56;100707.03;;;17.87;63.59
21290;BME280;10804;48.988;2.408;2022-10-16T07:54:24;100703.44;;;17.88;63.48
21290;BME280;10804;48.988;2.408;2022-10-16T07:56:52;100715.78;;;17.87;63.49
21290;BME280;10804;48.988;2.408;2022-10-16T07:59:20;100705.22;;;17.87;63.50
21290;BME280;10804;48.988;2.408;2022-10-16T08:01:48;100707.78;;;17.89;63.48
21290;BME280;10804;48.988;2.408;2022-10-16T08:04:16;100707.72;;;17.90;63.60
21290;BME280;10804;48.988;2.408;2022-10-16T08:06:43;100721.75;;;17.91;63.50
21290;BME280;10804;48.988;2.408;2022-10-16T08:09:10;100722.50;;;17.93;63.58
21290;BME280;10804;48.988;2.408;2022-10-16T08:11:38;100731.19;;;17.95;63.65
21290;BME280;10804;48.988;2.408;2022-10-16T08:14:06;100720.66;;;17.95;63.68
21290;BME280;10804;48.988;2.408;2022-10-16T08:16:34;100736.38;;;17.96;63.59
21290;BME280;10804;48.988;2.408;2022-10-16T08:19:01;100746.84;;;17.98;63.82
21290;BME280;10804;48.988;2.408;2022-10-16T08:21:28;100747.59;;;18.00;63.94
21290;BME280;10804;48.988;2.408;2022-10-16T08:23:55;100751.03;;;18.02;63.87
21290;BME280;10804;48.988;2.408;2022-10-16T08:26:23;100732.56;;;18.02;63.72
21290;BME280;10804;48.988;2.408;2022-10-16T08:28:50;100735.03;;;18.05;63.81
21290;BME280;10804;48.988;2.408;2022-10-16T08:31:19;100720.88;;;18.06;63.79
21290;BME280;10804;48.988;2.408;2022-10-16T08:33:47;100716.47;;;18.06;63.75
21290;BME280;10804;48.988;2.408;2022-10-16T08:36:15;100716.47;;;18.06;63.72
21290;BME280;10804;48.988;2.408;2022-10-16T08:38:43;100720.69;;;18.09;63.70
21290;BME280;10804;48.988;2.408;2022-10-16T08:41:26;100724.19;;;18.09;63.74
21290;BME280;10804;48.988;2.408;2022-10-16T08:44:22;100745.25;;;18.11;63.88
21290;BME280;10804;48.988;2.408;2022-10-16T08:47:00;100739.03;;;18.12;63.83
21290;BME280;10804;48.988;2.408;2022-10-16T08:49:30;100742.41;;;18.14;63.81
21290;BME280;10804;48.988;2.408;2022-10-16T08:51:58;100746.75;;;18.15;63.68
21290;BME280;10804;48.988;2.408;2022-10-16T08:54:29;100741.47;;;18.15;63.87
21290;BME280;10804;48.988;2.408;2022-10-16T08:57:08;100744.91;;;18.17;63.95
21290;BME280;10804;48.988;2.408;2022-10-16T08:59:36;100750.94;;;18.19;63.94
21290;BME280;10804;48.988;2.408;2022-10-16T09:02:23;100746.41;;;18.21;63.80
21290;BME280;10804;48.988;2.408;2022-10-16T09:07:47;100770.94;;;18.23;64.04
21290;BME280;10804;48.988;2.408;2022-10-16T09:10:29;100764.63;;;18.25;63.91
21290;BME280;10804;48.988;2.408;2022-10-16T09:13:11;100762.84;;;18.26;63.84
21290;BME280;10804;48.988;2.408;2022-10-16T09:15:48;100768.91;;;18.28;63.82
21290;BME280;10804;48.988;2.408;2022-10-16T09:18:22;100777.59;;;18.30;63.89
21290;BME280;10804;48.988;2.408;2022-10-16T09:20:57;100767.91;;;18.30;63.97
21290;BME280;10804;48.988;2.408;2022-10-16T09:23:27;100765.16;;;18.32;64.03
21290;BME280;10804;48.988;2.408;2022-10-16T09:25:55;100758.03;;;18.34;63.88
21290;BME280;10804;48.988;2.408;2022-10-16T09:28:23;100750.84;;;18.36;64.09
21290;BME280;10804;48.988;2.408;2022-10-16T09:30:50;100755.97;;;18.39;63.99
21290;BME280;10804;48.988;2.408;2022-10-16T09:33:23;100748.81;;;18.41;64.11
21290;BME280;10804;48.988;2.408;2022-10-16T09:35:53;100757.50;;;18.43;64.05
21290;BME280;10804;48.988;2.408;2022-10-16T09:38:24;100763.47;;;18.46;64.05
21290;BME280;10804;48.988;2.408;2022-10-16T09:40:52;100762.44;;;18.49;64.04
21290;BME280;10804;48.988;2.408;2022-10-16T09:43:23;100763.19;;;18.51;64.23
21290;BME280;10804;48.988;2.408;2022-10-16T09:45:55;100776.22;;;18.54;64.21
21290;BME280;10804;48.988;2.408;2022-10-16T09:48:26;100767.19;;;18.58;64.45
21290;BME280;10804;48.988;2.408;2022-10-16T09:50:58;100761.56;;;18.64;64.34
21290;BME280;10804;48.988;2.408;2022-10-16T09:53:38;100775.50;;;18.66;64.17
21290;BME280;10804;48.988;2.408;2022-10-16T09:56:06;100771.75;;;18.70;64.18
21290;BME280;10804;48.988;2.408;2022-10-16T09:58:34;100769.88;;;18.72;64.11
21290;BME280;10804;48.988;2.408;2022-10-16T10:01:03;100772.34;;;18.75;64.06
21290;BME280;10804;48.988;2.408;2022-10-16T10:03:37;100760.81;;;18.76;64.13
21290;BME280;10804;48.988;2.408;2022-10-16T10:06:14;100759.78;;;18.78;63.93
21290;BME280;10804;48.988;2.408;2022-10-16T10:08:54;100752.53;;;18.82;64.04
21290;BME280;10804;48.988;2.408;2022-10-16T10:11:42;100756.88;;;18.83;64.15
21290;BME280;10804;48.988;2.408;2022-10-16T10:14:24;100750.56;;;18.85;64.10
21290;BME280;10804;48.988;2.408;2022-10-16T10:17:06;100746.16;;;18.86;64.12
21290;BME280;10804;48.988;2.408;2022-10-16T10:19:40;100753.88;;;18.89;64.14
21290;BME280;10804;48.988;2.408;2022-10-16T10:22:24;100748.50;;;18.90;64.02
21290;BME280;10804;48.988;2.408;2022-10-16T10:25:15;100736.88;;;18.93;64.01
21290;BME280;10804;48.988;2.408;2022-10-16T10:28:00;100734.25;;;18.93;63.92
21290;BME280;10804;48.988;2.408;2022-10-16T10:30:38;100735.84;;;18.95;63.95
21290;BME280;10804;48.988;2.408;2022-10-16T10:33:18;100729.53;;;18.98;63.81
21290;BME280;10804;48.988;2.408;2022-10-16T10:35:56;100743.50;;;19.00;64.02
21290;BME280;10804;48.988;2.408;2022-10-16T10:38:39;100741.66;;;19.02;63.93
21290;BME280;10804;48.988;2.408;2022-10-16T10:41:26;100738.88;;;19.03;63.78
21290;BME280;10804;48.988;2.408;2022-10-16T10:44:04;100737.03;;;19.05;63.84
21290;BME280;10804;48.988;2.408;2022-10-16T10:46:36;100739.56;;;19.07;63.77
21290;BME280;10804;48.988;2.408;2022-10-16T10:49:15;100735.97;;;19.08;63.81
21290;BME280;10804;48.988;2.408;2022-10-16T10:51:52;100729.66;;;19.10;63.62
21290;BME280;10804;48.988;2.408;2022-10-16T10:54:30;100734.78;;;19.13;63.72
21290;BME280;10804;48.988;2.408;2022-10-16T10:57:02;100730.31;;;19.14;63.64
21290;BME280;10804;48.988;2.408;2022-10-16T10:59:53;100726.63;;;19.16;63.67
21290;BME280;10804;48.988;2.408;2022-10-16T11:02:26;100725.69;;;19.17;63.71
21290;BME280;10804;48.988;2.408;2022-10-16T11:05:23;100726.47;;;19.19;63.69
21290;BME280;10804;48.988;2.408;2022-10-16T11:07:58;100721.97;;;19.21;63.68
21290;BME280;10804;48.988;2.408;2022-10-16T11:10:29;100720.94;;;19.24;63.74
21290;BME280;10804;48.988;2.408;2022-10-16T11:13:03;100728.66;;;19.27;63.73
21290;BME280;10804;48.988;2.408;2022-10-16T11:15:39;100709.22;;;19.28;63.64
21290;BME280;10804;48.988;2.408;2022-10-16T11:18:13;100713.53;;;19.29;63.74
21290;BME280;10804;48.988;2.408;2022-10-16T11:20:47;100718.66;;;19.32;63.81
21290;BME280;10804;48.988;2.408;2022-10-16T11:23:23;100719.41;;;19.34;63.64
21290;BME280;10804;48.988;2.408;2022-10-16T11:25:54;100714.03;;;19.35;63.76
21290;BME280;10804;48.988;2.408;2022-10-16T11:28:29;100718.38;;;19.36;63.65
21290;BME280;10804;48.988;2.408;2022-10-16T11:31:04;100719.13;;;19.38;63.60
21290;BME280;10804;48.988;2.408;2022-10-16T11:33:35;100713.75;;;19.40;63.56
21290;BME280;10804;48.988;2.408;2022-10-16T11:36:10;100712.69;;;19.42;63.67
21290;BME280;10804;48.988;2.408;2022-10-16T11:38:44;100708.25;;;19.43;63.52
21290;BME280;10804;48.988;2.408;2022-10-16T11:41:20;100705.41;;;19.46;63.78
21290;BME280;10804;48.988;2.408;2022-10-16T11:43:56;100707.13;;;19.47;63.60
21290;BME280;10804;48.988;2.408;2022-10-16T11:46:27;100697.31;;;19.49;63.72
21290;BME280;10804;48.988;2.408;2022-10-16T11:49:01;100700.69;;;19.51;63.65
21290;BME280;10804;48.988;2.408;2022-10-16T11:51:33;100695.50;;;19.49;63.78
21290;BME280;10804;48.988;2.408;2022-10-16T11:54:14;100691.72;;;19.53;63.64
21290;BME280;10804;48.988;2.408;2022-10-16T11:56:45;100686.22;;;19.56;63.64
21290;BME280;10804;48.988;2.408;2022-10-16T11:59:22;100676.50;;;19.57;63.63
21290;BME280;10804;48.988;2.408;2022-10-16T12:01:56;100666.75;;;19.57;63.72
21290;BME280;10804;48.988;2.408;2022-10-16T12:04:32;100664.03;;;19.59;63.78
21290;BME280;10804;48.988;2.408;2022-10-16T12:07:05;100662.13;;;19.61;63.87
21290;BME280;10804;48.988;2.408;2022-10-16T12:09:37;100659.28;;;19.64;63.72
21290;BME280;10804;48.988;2.408;2022-10-16T12:12:05;100656.66;;;19.64;63.85
21290;BME280;10804;48.988;2.408;2022-10-16T12:14:59;100651.16;;;19.67;63.66
21290;BME280;10804;48.988;2.408;2022-10-16T12:17:35;100654.53;;;19.69;63.61
21290;BME280;10804;48.988;2.408;2022-10-16T12:20:20;100651.91;;;19.69;63.83
21290;BME280;10804;48.988;2.408;2022-10-16T12:22:51;100663.25;;;19.71;63.61
21290;BME280;10804;48.988;2.408;2022-10-16T12:25:24;100649.06;;;19.72;63.87
21290;BME280;10804;48.988;2.408;2022-10-16T12:27:56;100662.22;;;19.73;63.71
21290;BME280;10804;48.988;2.408;2022-10-16T12:30:26;100664.75;;;19.75;63.84
21290;BME280;10804;48.988;2.408;2022-10-16T12:32:56;100662.84;;;19.77;63.77
21290;BME280;10804;48.988;2.408;2022-10-16T12:35:26;100664.56;;;19.78;63.55
21290;BME280;10804;48.988;2.408;2022-10-16T12:38:05;100661.78;;;19.79;63.72
21290;BME280;10804;48.988;2.408;2022-10-16T12:40:37;100669.66;;;19.81;63.63
21290;BME280;10804;48.988;2.408;2022-10-16T12:46:02;100653.56;;;19.84;63.52
21290;BME280;10804;48.988;2.408;2022-10-16T12:48:29;100650.00;;;19.85;63.24
21290;BME280;10804;48.988;2.408;2022-10-16T12:50:57;100641.94;;;19.86;63.33
21290;BME280;10804;48.988;2.408;2022-10-16T12:53:36;100642.66;;;19.88;63.30
21290;BME280;10804;48.988;2.408;2022-10-16T12:56:09;100643.53;;;19.89;63.17
21290;BME280;10804;48.988;2.408;2022-10-16T12:58:58;100640.78;;;19.90;63.22
21290;BME280;10804;48.988;2.408;2022-10-16T13:01:37;100638.97;;;19.91;63.15
21290;BME280;10804;48.988;2.408;2022-10-16T13:07:11;100638.66;;;19.95;63.10
21290;BME280;10804;48.988;2.408;2022-10-16T13:09:52;100631.59;;;19.96;63.12
21290;BME280;10804;48.988;2.408;2022-10-16T13:12:37;100632.34;;;19.98;63.09
21290;BME280;10804;48.988;2.408;2022-10-16T13:15:22;100641.13;;;19.98;63.09
21290;BME280;10804;48.988;2.408;2022-10-16T13:17:59;100634.81;;;20.01;62.98